createdAt,value
2019-01-08T00:04:44.794Z,100257.08
2019-01-08T00:09:48.927Z,100245.31
2019-01-08T00:14:53.151Z,100225.26
2019-01-08T00:19:57.506Z,100207.04
2019-01-08T00:25:01.775Z,100175.05
2019-01-08T00:30:06.903Z,100165.06
2019-01-08T00:35:11.101Z,100149.86
2019-01-08T00:40:15.289Z,100146.42
2019-01-08T00:45:19.484Z,100131.53
2019-01-08T00:50:23.585Z,100118.42
2019-01-08T00:55:27.800Z,100116.23
2019-01-08T01:00:32.028Z,100105.69
2019-01-08T01:05:36.177Z,100092.88
2019-01-08T01:10:40.336Z,100077.64
2019-01-08T01:15:45.042Z,100065.47
2019-01-08T01:20:49.107Z,100057.88
2019-01-08T01:25:53.253Z,100031.09
2019-01-08T01:30:57.397Z,100020.30
2019-01-08T01:36:01.539Z,100014.63
2019-01-08T01:41:05.667Z,99997.92
2019-01-08T01:46:09.840Z,99991.72
2019-01-08T01:51:13.979Z,99971.91
2019-01-08T01:56:18.143Z,99969.41
2019-01-08T02:01:22.192Z,99952.17
2019-01-08T02:06:26.317Z,99933.97
2019-01-08T02:11:30.544Z,99924.11
2019-01-08T02:16:34.515Z,99915.20
2019-01-08T02:21:38.731Z,99903.29
2019-01-08T02:26:42.696Z,99874.25
2019-01-08T02:31:46.698Z,99848.49
2019-01-08T02:36:50.809Z,99863.45
2019-01-08T02:41:54.985Z,99854.47
2019-01-08T02:46:59.040Z,99846.61
2019-01-08T02:52:03.069Z,99829.84
2019-01-08T02:57:07.144Z,99810.97
2019-01-08T03:02:11.216Z,99802.59
2019-01-08T03:07:15.289Z,99794.39
2019-01-08T03:12:19.364Z,99782.23
2019-01-08T03:17:23.667Z,99766.95
2019-01-08T03:22:27.810Z,99768.30
2019-01-08T03:27:32.043Z,99757.30
2019-01-08T03:32:36.107Z,99752.86
2019-01-08T03:37:40.261Z,99730.50
2019-01-08T03:42:44.394Z,99726.73
2019-01-08T03:47:48.527Z,99735.11
2019-01-08T03:52:52.595Z,99721.47
2019-01-08T03:57:56.890Z,99733.48
2019-01-08T04:03:01.160Z,99739.06
2019-01-08T04:08:05.380Z,99720.13
2019-01-08T04:13:09.514Z,99698.89
2019-01-08T04:18:14.034Z,99684.42
2019-01-08T04:23:18.180Z,99678.70
2019-01-08T04:28:22.360Z,99651.89
2019-01-08T04:33:26.582Z,99651.89
2019-01-08T04:38:30.610Z,99659.28
2019-01-08T04:43:34.705Z,99648.11
2019-01-08T04:48:38.758Z,99643.69
2019-01-08T04:53:42.862Z,99629.20
2019-01-08T04:58:46.911Z,99620.32
2019-01-08T05:03:50.905Z,99618.66
2019-01-08T05:08:54.826Z,99614.72
2019-01-08T05:13:58.694Z,99595.47
2019-01-08T05:19:02.780Z,99584.12
2019-01-08T05:24:06.831Z,99583.80
2019-01-08T05:29:10.769Z,99571.30
2019-01-08T05:34:14.833Z,99551.89
2019-01-08T05:39:18.729Z,99549.91
2019-01-08T05:44:22.732Z,99541.33
2019-01-08T05:49:26.777Z,99535.60
2019-01-08T05:54:30.738Z,99524.40
2019-01-08T05:59:34.688Z,99520.59
2019-01-08T06:04:38.898Z,99496.58
2019-01-08T06:09:43.126Z,99500.53
2019-01-08T06:14:47.294Z,99503.52
2019-01-08T06:19:51.424Z,99504.20
2019-01-08T06:24:55.496Z,99501.53
2019-01-08T06:29:59.598Z,99482.65
2019-01-08T06:35:03.858Z,99501.56
2019-01-08T06:40:07.989Z,99484.75
2019-01-08T06:45:12.083Z,99453.66
2019-01-08T06:50:16.261Z,99429.52
2019-01-08T06:55:20.368Z,99414.55
2019-01-08T07:00:24.417Z,99407.33
2019-01-08T07:05:28.577Z,99403.70
2019-01-08T07:10:32.388Z,99389.53
2019-01-08T07:15:36.291Z,99368.11
2019-01-08T07:20:40.287Z,99367.78
2019-01-08T07:25:44.277Z,99369.59
2019-01-08T07:30:48.226Z,99369.86
2019-01-08T07:35:52.252Z,99367.84
2019-01-08T07:40:56.384Z,99357.00
2019-01-08T07:46:00.493Z,99358.41
2019-01-08T07:51:04.535Z,99357.25
2019-01-08T07:56:08.424Z,99339.31
2019-01-08T08:01:12.149Z,99333.94
2019-01-08T08:06:15.944Z,99320.04
2019-01-08T08:11:19.664Z,99330.27
2019-01-08T08:16:23.403Z,99338.34
2019-01-08T08:21:27.171Z,99298.06
2019-01-08T08:26:30.998Z,99313.48
2019-01-08T08:31:34.778Z,99304.06
2019-01-08T08:36:38.520Z,99315.59
2019-01-08T08:41:42.323Z,99284.16
2019-01-08T08:46:46.098Z,99298.50
2019-01-08T08:51:49.896Z,99315.61
2019-01-08T08:56:53.785Z,99271.19
2019-01-08T09:01:57.684Z,99288.73
2019-01-08T09:07:01.451Z,99300.53
2019-01-08T09:12:05.338Z,99280.98
2019-01-08T09:17:09.071Z,99240.50
2019-01-08T09:22:12.804Z,99238.48
2019-01-08T09:27:16.524Z,99255.38
2019-01-08T09:32:20.269Z,99230.95
2019-01-08T09:37:24.050Z,99213.42
2019-01-08T09:42:27.812Z,99204.53
2019-01-08T09:47:31.664Z,99208.17
2019-01-08T09:52:35.446Z,99196.09
2019-01-08T09:57:39.426Z,99176.77
2019-01-08T10:02:43.229Z,99165.88
2019-01-08T10:07:47.068Z,99127.62
2019-01-08T10:12:51.037Z,99130.25
2019-01-08T10:17:54.892Z,99141.16
2019-01-08T10:22:58.679Z,99123.94
2019-01-08T10:28:02.638Z,99143.56
2019-01-08T10:33:06.543Z,99093.32
2019-01-08T10:38:10.544Z,99091.79
2019-01-08T10:43:14.301Z,99074.52
2019-01-08T10:48:18.188Z,99040.97
2019-01-08T10:53:22.026Z,99052.48
2019-01-08T10:58:25.762Z,99038.88
2019-01-08T11:03:29.560Z,99002.49
2019-01-08T11:08:33.533Z,98988.69
2019-01-08T11:13:37.512Z,98972.80
2019-01-08T11:18:41.441Z,98960.68
2019-01-08T11:23:45.438Z,98960.58
2019-01-08T11:28:49.288Z,98940.90
2019-01-08T11:33:53.233Z,98923.90
2019-01-08T11:38:57.102Z,98972.48
2019-01-08T11:44:01.043Z,98993.42
2019-01-08T11:49:05.023Z,98941.52
2019-01-08T11:54:08.909Z,98942.48
2019-01-08T11:59:12.807Z,98921.75
2019-01-08T12:04:16.707Z,98920.16
2019-01-08T12:09:20.732Z,98897.78
2019-01-08T12:14:24.700Z,98904.86
2019-01-08T12:19:28.592Z,98901.72
2019-01-08T12:24:32.664Z,98881.66
2019-01-08T12:29:36.605Z,98880.56
2019-01-08T12:34:40.528Z,98920.69
2019-01-08T12:39:44.454Z,98887.49
2019-01-08T12:44:48.432Z,98877.70
2019-01-08T12:49:54.363Z,98883.38
2019-01-08T12:54:58.004Z,98895.11
2019-01-08T13:00:02.031Z,98875.66
2019-01-08T13:05:06.296Z,98894.06
2019-01-08T13:10:10.304Z,98899.69
2019-01-08T13:15:14.253Z,98907.62
2019-01-08T13:20:18.126Z,98875.16
2019-01-08T13:25:22.079Z,98870.71
2019-01-08T13:30:25.945Z,98858.33
2019-01-08T13:35:29.695Z,98879.84
2019-01-08T13:40:33.595Z,98861.38
2019-01-08T13:45:37.469Z,98857.59
2019-01-08T13:50:41.475Z,98884.71
2019-01-08T13:55:45.246Z,98869.16
2019-01-08T14:00:49.013Z,98870.63
2019-01-08T14:05:52.831Z,98846.45
2019-01-08T14:10:56.870Z,98863.86
2019-01-08T14:16:00.725Z,98853.30
2019-01-08T14:21:04.532Z,98863.59
2019-01-08T14:26:08.490Z,98872.98
2019-01-08T14:31:12.366Z,98898.91
2019-01-08T14:36:16.159Z,98946.58
2019-01-08T14:41:19.909Z,98877.58
2019-01-08T14:46:24.565Z,98866.41
2019-01-08T14:51:28.349Z,98862.45
2019-01-08T14:56:32.184Z,98878.81
2019-01-08T15:01:36.223Z,98855.30
2019-01-08T15:06:40.092Z,98855.89
2019-01-08T15:11:44.124Z,98854.77
2019-01-08T15:16:48.193Z,98867.06
2019-01-08T15:21:51.995Z,98848.42
2019-01-08T15:26:55.784Z,98848.42
2019-01-08T15:31:59.675Z,98880.05
2019-01-08T15:37:03.574Z,98871.98
2019-01-08T15:42:07.567Z,98873.03
2019-01-08T15:47:11.602Z,98866.68
2019-01-08T15:52:15.589Z,98857.39
2019-01-08T15:57:19.644Z,98849.78
2019-01-08T16:02:23.389Z,98863.78
2019-01-08T16:07:27.179Z,98857.17
2019-01-08T16:12:31.025Z,98851.59
2019-01-08T16:17:34.743Z,98849.09
2019-01-08T16:22:38.469Z,98874.84
2019-01-08T16:27:42.287Z,98867.69
2019-01-08T16:32:56.723Z,98899.93
2019-01-08T16:38:03.543Z,98856.62
2019-01-08T16:43:07.721Z,98852.26
2019-01-08T16:48:11.628Z,98853.33
2019-01-08T16:53:15.462Z,98857.29
2019-01-08T16:58:19.456Z,98857.88
2019-01-08T17:03:24.869Z,98851.79
2019-01-08T17:08:28.899Z,98840.72
2019-01-08T17:13:32.884Z,98845.00
2019-01-08T17:18:36.764Z,98844.78
2019-01-08T17:23:40.689Z,98832.37
2019-01-08T17:28:44.497Z,98856.39
2019-01-08T17:33:48.430Z,98843.22
2019-01-08T17:38:52.369Z,98841.59
2019-01-08T17:43:56.348Z,98831.62
2019-01-08T17:49:00.197Z,98828.62
2019-01-08T17:54:04.261Z,98830.02
2019-01-08T17:59:14.286Z,98857.13
2019-01-08T18:04:18.913Z,98836.11
2019-01-08T18:09:22.846Z,98838.27
2019-01-08T18:14:26.652Z,98841.37
2019-01-08T18:19:30.702Z,98853.27
2019-01-08T18:24:34.788Z,98843.05
2019-01-08T18:29:38.930Z,98853.50
2019-01-08T18:34:42.919Z,98847.43
2019-01-08T18:39:47.013Z,98841.42
2019-01-08T18:44:51.063Z,98849.56
2019-01-08T18:49:54.967Z,98867.28
2019-01-08T18:54:58.926Z,98844.55
2019-01-08T19:00:02.951Z,98858.91
2019-01-08T19:05:07.019Z,98877.27
2019-01-08T19:10:13.526Z,98856.34
2019-01-08T19:15:17.507Z,98865.78
2019-01-08T19:20:21.614Z,98877.66
2019-01-08T19:25:25.686Z,98864.05
2019-01-08T19:30:29.637Z,98862.09
2019-01-08T19:35:33.641Z,98873.72
2019-01-08T19:40:37.498Z,98874.52
2019-01-08T19:45:41.530Z,98874.52
2019-01-08T19:50:45.466Z,98899.06
2019-01-08T19:55:49.486Z,98917.59
2019-01-08T20:00:53.445Z,98923.47
2019-01-08T20:05:57.616Z,98914.72
2019-01-08T20:11:01.638Z,98888.19
2019-01-08T20:16:05.510Z,98892.70
2019-01-08T20:21:09.525Z,98915.17
2019-01-08T20:26:13.600Z,98912.30
2019-01-08T20:31:17.541Z,98899.73
2019-01-08T20:36:21.460Z,98902.36
2019-01-08T20:41:25.445Z,98896.68
2019-01-08T20:46:29.443Z,98890.56
2019-01-08T20:51:33.349Z,98894.00
2019-01-08T20:56:37.183Z,98886.63
2019-01-08T21:01:41.073Z,98902.31
2019-01-08T21:06:44.868Z,98916.23
2019-01-08T21:11:48.841Z,98897.88
2019-01-08T21:16:52.808Z,98903.05
2019-01-08T21:21:56.966Z,98920.28
2019-01-08T21:27:01.171Z,98896.94
2019-01-08T21:32:05.211Z,98904.06
2019-01-08T21:37:09.425Z,98916.53
2019-01-08T21:42:13.366Z,98906.08
2019-01-08T21:47:17.479Z,98921.31
2019-01-08T21:52:21.578Z,98928.72
2019-01-08T21:57:35.474Z,98938.23
2019-01-08T22:02:39.836Z,98926.61
2019-01-08T22:07:43.957Z,98962.33
2019-01-08T22:12:48.058Z,98942.02
2019-01-08T22:17:52.016Z,98949.55
2019-01-08T22:22:56.185Z,98941.71
2019-01-08T22:28:00.178Z,98940.88
2019-01-08T22:33:04.311Z,98928.77
2019-01-08T22:38:08.439Z,98953.82
2019-01-08T22:43:12.595Z,98954.30
2019-01-08T22:48:16.710Z,98960.12
2019-01-08T22:53:20.839Z,98961.98
2019-01-08T22:58:25.405Z,98953.16
2019-01-08T23:03:29.646Z,98942.69
2019-01-08T23:08:33.925Z,98943.35
2019-01-08T23:13:38.207Z,98942.84
2019-01-08T23:18:42.339Z,98954.28
2019-01-08T23:23:46.649Z,98956.10
2019-01-08T23:28:50.770Z,98949.23
2019-01-08T23:33:54.883Z,98955.44
2019-01-08T23:38:58.898Z,98960.84
2019-01-08T23:44:02.898Z,98959.20
2019-01-08T23:49:07.035Z,98959.18
2019-01-08T23:54:11.559Z,98940.38
2019-01-08T23:59:15.680Z,98954.76
